Pagrindinis puslapis
METAR-TAF:

METAR-TAF

Oro uostai :

Charbinas, Kinija

platuma: 45-45N, ilguma: 126-46E, Aukštis: 143 m

Dabartinis oras

Ataskaita buvo paskelbta 31 minutes, ne 04:00 UTC
Vėjas 10 kt iš Vakarų
Temperatūra 22°C
Drėgmė 69%
Slėgis 1004 hPa
Matomumas 10 km arba daugiau
Su prošvaistėmis ne aukštis 2300 ft

METAR: ZYHB 180400Z 26005MPS 9999 BKN023 22/16 Q1004 NOSIG

Laikas: 12:31 (04:31 UTC)

Prognozė

Ataskaita buvo paskelbta 9 valandos ir 23 minutes, ne 19:08 UTC
Prognozė galioja nuo 18 metu 00 UTC su 18 metu 24 UTC
Vėjas 8 kt iš Vakarų
Matomumas: 6000 m
Išsisklaidę debesys ne aukštis 500 ft
Išsisklaidę debesys ne aukštis 1000 ft
Apsiniaukę ne aukštis 2000 ft

TAF: ZYHB 171908Z 1800/1824 27004MPS 6000 SCT005 SCT010 OVC020 TX22/1806Z TN15/1821Z

Orai ataskaitas ir orų prognozės (METAR, TAF).

turimą stotys yra geltonos ir raudonos taškus žemėlapyje.

Perkelti pele per norėdami pamatyti stoties vardą.

Tada spustelėkite, norėdami matyti oro stebėjimo ir prognozės.

Norėdami pakeisti žemėlapį: spustelėkite ant žalios mygtukų su juodo kryžiaus žemyn,; žalią mygtuką su brūkšneliu, jei norite nutolinti; arba žalių rodyklių gretimoms žemėlapius.


METAR-TAF: